sensor_id;sensor_type;location;lat;lon;timestamp;P1;durP1;ratioP1;P2;durP2;ratioP2
14933;SDS011;7560;51.364;12.384;2022-07-12T00:03:58;2.70;;;2.50;;
14933;SDS011;7560;51.364;12.384;2022-07-12T00:09:00;3.03;;;2.40;;
14933;SDS011;7560;51.364;12.384;2022-07-12T00:14:02;2.53;;;2.33;;
14933;SDS011;7560;51.364;12.384;2022-07-12T00:19:04;3.95;;;2.55;;
14933;SDS011;7560;51.364;12.384;2022-07-12T00:24:06;3.13;;;2.70;;
14933;SDS011;7560;51.364;12.384;2022-07-12T00:29:08;2.70;;;2.50;;
14933;SDS011;7560;51.364;12.384;2022-07-12T00:34:10;2.95;;;2.30;;
14933;SDS011;7560;51.364;12.384;2022-07-12T00:39:11;2.92;;;2.65;;
14933;SDS011;7560;51.364;12.384;2022-07-12T00:44:13;3.55;;;2.75;;
14933;SDS011;7560;51.364;12.384;2022-07-12T00:49:15;2.80;;;2.60;;
14933;SDS011;7560;51.364;12.384;2022-07-12T00:54:17;2.90;;;2.65;;
14933;SDS011;7560;51.364;12.384;2022-07-12T00:59:20;4.53;;;2.83;;
14933;SDS011;7560;51.364;12.384;2022-07-12T01:04:22;3.47;;;2.90;;
14933;SDS011;7560;51.364;12.384;2022-07-12T01:09:25;3.42;;;2.85;;
14933;SDS011;7560;51.364;12.384;2022-07-12T01:14:27;3.08;;;2.78;;
14933;SDS011;7560;51.364;12.384;2022-07-12T01:19:29;3.35;;;3.05;;
14933;SDS011;7560;51.364;12.384;2022-07-12T01:24:32;3.38;;;3.10;;
14933;SDS011;7560;51.364;12.384;2022-07-12T01:29:34;3.50;;;3.20;;
14933;SDS011;7560;51.364;12.384;2022-07-12T01:34:36;3.35;;;3.08;;
14933;SDS011;7560;51.364;12.384;2022-07-12T01:39:38;3.65;;;2.95;;
14933;SDS011;7560;51.364;12.384;2022-07-12T01:44:39;3.95;;;3.17;;
14933;SDS011;7560;51.364;12.384;2022-07-12T01:49:42;3.17;;;2.88;;
14933;SDS011;7560;51.364;12.384;2022-07-12T01:54:44;3.17;;;2.92;;
14933;SDS011;7560;51.364;12.384;2022-07-12T01:59:46;4.43;;;3.45;;
14933;SDS011;7560;51.364;12.384;2022-07-12T02:04:48;3.50;;;3.20;;
14933;SDS011;7560;51.364;12.384;2022-07-12T02:09:49;4.10;;;3.40;;
14933;SDS011;7560;51.364;12.384;2022-07-12T02:14:51;4.40;;;3.88;;
14933;SDS011;7560;51.364;12.384;2022-07-12T02:19:53;3.97;;;3.35;;
14933;SDS011;7560;51.364;12.384;2022-07-12T02:24:55;4.03;;;3.63;;
14933;SDS011;7560;51.364;12.384;2022-07-12T02:29:56;4.78;;;3.33;;
14933;SDS011;7560;51.364;12.384;2022-07-12T02:34:58;4.30;;;3.60;;
14933;SDS011;7560;51.364;12.384;2022-07-12T02:40:00;4.43;;;3.67;;
14933;SDS011;7560;51.364;12.384;2022-07-12T02:45:20;5.05;;;3.47;;
14933;SDS011;7560;51.364;12.384;2022-07-12T02:50:22;4.05;;;3.60;;
14933;SDS011;7560;51.364;12.384;2022-07-12T02:55:24;4.07;;;3.40;;
14933;SDS011;7560;51.364;12.384;2022-07-12T03:00:26;4.80;;;3.55;;
14933;SDS011;7560;51.364;12.384;2022-07-12T03:05:29;7.10;;;3.67;;
14933;SDS011;7560;51.364;12.384;2022-07-12T03:10:30;3.92;;;3.58;;
14933;SDS011;7560;51.364;12.384;2022-07-12T03:15:32;4.43;;;3.58;;
14933;SDS011;7560;51.364;12.384;2022-07-12T03:20:34;4.53;;;3.60;;
14933;SDS011;7560;51.364;12.384;2022-07-12T03:25:36;4.25;;;3.60;;
14933;SDS011;7560;51.364;12.384;2022-07-12T03:30:38;4.57;;;3.58;;
14933;SDS011;7560;51.364;12.384;2022-07-12T03:35:40;4.25;;;3.70;;
14933;SDS011;7560;51.364;12.384;2022-07-12T03:40:41;7.22;;;4.40;;
14933;SDS011;7560;51.364;12.384;2022-07-12T03:45:43;5.28;;;4.10;;
14933;SDS011;7560;51.364;12.384;2022-07-12T03:50:46;5.60;;;4.32;;
14933;SDS011;7560;51.364;12.384;2022-07-12T03:55:49;7.50;;;4.22;;
14933;SDS011;7560;51.364;12.384;2022-07-12T04:00:51;5.00;;;4.10;;
14933;SDS011;7560;51.364;12.384;2022-07-12T04:05:52;5.90;;;4.60;;
14933;SDS011;7560;51.364;12.384;2022-07-12T04:11:01;5.78;;;4.63;;
14933;SDS011;7560;51.364;12.384;2022-07-12T04:16:02;5.15;;;4.38;;
14933;SDS011;7560;51.364;12.384;2022-07-12T04:21:05;6.97;;;4.75;;
14933;SDS011;7560;51.364;12.384;2022-07-12T04:26:07;6.35;;;4.60;;
14933;SDS011;7560;51.364;12.384;2022-07-12T04:31:09;5.30;;;4.55;;
14933;SDS011;7560;51.364;12.384;2022-07-12T04:36:11;5.32;;;4.57;;
14933;SDS011;7560;51.364;12.384;2022-07-12T04:41:12;6.75;;;5.00;;
14933;SDS011;7560;51.364;12.384;2022-07-12T04:46:14;5.68;;;5.07;;
14933;SDS011;7560;51.364;12.384;2022-07-12T04:51:16;5.32;;;4.38;;
14933;SDS011;7560;51.364;12.384;2022-07-12T04:56:18;7.05;;;4.75;;
14933;SDS011;7560;51.364;12.384;2022-07-12T05:01:20;5.43;;;4.53;;
14933;SDS011;7560;51.364;12.384;2022-07-12T05:06:22;6.20;;;4.53;;
14933;SDS011;7560;51.364;12.384;2022-07-12T05:11:24;5.43;;;4.32;;
14933;SDS011;7560;51.364;12.384;2022-07-12T05:16:26;13.82;;;9.02;;
14933;SDS011;7560;51.364;12.384;2022-07-12T05:21:28;5.32;;;4.55;;
14933;SDS011;7560;51.364;12.384;2022-07-12T05:26:30;6.07;;;3.88;;
14933;SDS011;7560;51.364;12.384;2022-07-12T05:31:32;6.25;;;4.63;;
14933;SDS011;7560;51.364;12.384;2022-07-12T05:36:34;5.97;;;4.38;;
14933;SDS011;7560;51.364;12.384;2022-07-12T05:41:35;4.70;;;4.00;;
14933;SDS011;7560;51.364;12.384;2022-07-12T05:46:37;4.63;;;4.05;;
14933;SDS011;7560;51.364;12.384;2022-07-12T05:51:40;4.50;;;3.72;;
14933;SDS011;7560;51.364;12.384;2022-07-12T05:57:01;6.20;;;3.88;;
14933;SDS011;7560;51.364;12.384;2022-07-12T06:02:03;4.05;;;3.53;;
14933;SDS011;7560;51.364;12.384;2022-07-12T06:07:05;8.32;;;3.88;;
14933;SDS011;7560;51.364;12.384;2022-07-12T06:12:07;5.03;;;3.28;;
14933;SDS011;7560;51.364;12.384;2022-07-12T06:17:09;4.80;;;3.50;;
14933;SDS011;7560;51.364;12.384;2022-07-12T06:22:11;4.07;;;3.10;;
14933;SDS011;7560;51.364;12.384;2022-07-12T06:27:13;4.72;;;3.55;;
14933;SDS011;7560;51.364;12.384;2022-07-12T06:32:15;3.40;;;3.10;;
14933;SDS011;7560;51.364;12.384;2022-07-12T06:37:17;5.22;;;3.03;;
14933;SDS011;7560;51.364;12.384;2022-07-12T06:42:19;3.20;;;2.88;;
14933;SDS011;7560;51.364;12.384;2022-07-12T06:47:21;4.38;;;2.92;;
14933;SDS011;7560;51.364;12.384;2022-07-12T06:52:23;3.00;;;2.50;;
14933;SDS011;7560;51.364;12.384;2022-07-12T06:57:31;3.08;;;2.60;;
14933;SDS011;7560;51.364;12.384;2022-07-12T07:02:34;4.15;;;2.63;;
14933;SDS011;7560;51.364;12.384;2022-07-12T07:07:37;4.90;;;2.60;;
14933;SDS011;7560;51.364;12.384;2022-07-12T07:12:38;2.72;;;2.20;;
14933;SDS011;7560;51.364;12.384;2022-07-12T07:17:41;4.03;;;2.50;;
14933;SDS011;7560;51.364;12.384;2022-07-12T07:22:43;4.15;;;2.70;;
14933;SDS011;7560;51.364;12.384;2022-07-12T07:27:45;3.10;;;2.33;;
14933;SDS011;7560;51.364;12.384;2022-07-12T07:32:47;4.07;;;2.47;;
14933;SDS011;7560;51.364;12.384;2022-07-12T07:37:56;4.07;;;2.72;;
14933;SDS011;7560;51.364;12.384;2022-07-12T07:42:57;5.40;;;2.38;;
14933;SDS011;7560;51.364;12.384;2022-07-12T07:47:59;2.85;;;2.45;;
14933;SDS011;7560;51.364;12.384;2022-07-12T07:53:21;5.80;;;2.28;;
14933;SDS011;7560;51.364;12.384;2022-07-12T07:58:24;2.08;;;1.88;;
14933;SDS011;7560;51.364;12.384;2022-07-12T08:03:26;2.85;;;2.22;;
14933;SDS011;7560;51.364;12.384;2022-07-12T08:08:28;1.83;;;1.70;;
14933;SDS011;7560;51.364;12.384;2022-07-12T08:13:50;2.47;;;1.80;;
14933;SDS011;7560;51.364;12.384;2022-07-12T08:18:52;3.78;;;1.60;;
14933;SDS011;7560;51.364;12.384;2022-07-12T08:23:54;3.22;;;1.40;;
14933;SDS011;7560;51.364;12.384;2022-07-12T08:28:57;2.03;;;1.58;;
14933;SDS011;7560;51.364;12.384;2022-07-12T08:33:58;4.03;;;1.50;;
14933;SDS011;7560;51.364;12.384;2022-07-12T08:39:00;3.17;;;1.40;;
14933;SDS011;7560;51.364;12.384;2022-07-12T08:44:02;5.25;;;1.80;;
14933;SDS011;7560;51.364;12.384;2022-07-12T08:49:05;2.22;;;1.67;;
14933;SDS011;7560;51.364;12.384;2022-07-12T08:54:09;3.97;;;1.60;;
14933;SDS011;7560;51.364;12.384;2022-07-12T08:59:19;2.25;;;1.40;;
14933;SDS011;7560;51.364;12.384;2022-07-12T09:04:23;1.90;;;1.15;;
14933;SDS011;7560;51.364;12.384;2022-07-12T09:09:31;3.13;;;1.33;;
14933;SDS011;7560;51.364;12.384;2022-07-12T09:14:34;2.00;;;1.15;;
14933;SDS011;7560;51.364;12.384;2022-07-12T09:19:36;2.97;;;1.10;;
14933;SDS011;7560;51.364;12.384;2022-07-12T09:24:38;2.63;;;1.40;;
14933;SDS011;7560;51.364;12.384;2022-07-12T09:29:48;1.95;;;1.00;;
14933;SDS011;7560;51.364;12.384;2022-07-12T09:34:59;3.35;;;1.10;;
14933;SDS011;7560;51.364;12.384;2022-07-12T09:40:20;2.22;;;1.20;;
14933;SDS011;7560;51.364;12.384;2022-07-12T09:45:22;2.60;;;0.73;;
14933;SDS011;7560;51.364;12.384;2022-07-12T09:50:24;2.15;;;1.02;;
14933;SDS011;7560;51.364;12.384;2022-07-12T09:55:26;1.35;;;0.90;;
14933;SDS011;7560;51.364;12.384;2022-07-12T10:00:33;4.40;;;0.98;;
14933;SDS011;7560;51.364;12.384;2022-07-12T10:05:36;1.23;;;1.05;;
14933;SDS011;7560;51.364;12.384;2022-07-12T10:10:42;1.77;;;0.90;;
14933;SDS011;7560;51.364;12.384;2022-07-12T10:15:44;2.45;;;0.98;;
14933;SDS011;7560;51.364;12.384;2022-07-12T10:20:48;2.13;;;1.00;;
14933;SDS011;7560;51.364;12.384;2022-07-12T10:25:51;0.90;;;0.80;;
14933;SDS011;7560;51.364;12.384;2022-07-12T10:30:52;2.33;;;1.20;;
14933;SDS011;7560;51.364;12.384;2022-07-12T10:35:58;6.05;;;1.10;;
14933;SDS011;7560;51.364;12.384;2022-07-12T10:41:18;1.58;;;0.90;;
14933;SDS011;7560;51.364;12.384;2022-07-12T10:46:22;2.10;;;0.90;;
14933;SDS011;7560;51.364;12.384;2022-07-12T10:51:25;1.60;;;1.17;;
14933;SDS011;7560;51.364;12.384;2022-07-12T10:56:27;4.60;;;1.10;;
14933;SDS011;7560;51.364;12.384;2022-07-12T11:01:33;1.20;;;0.75;;
14933;SDS011;7560;51.364;12.384;2022-07-12T11:06:36;2.97;;;0.90;;
14933;SDS011;7560;51.364;12.384;2022-07-12T11:11:43;2.35;;;0.85;;
14933;SDS011;7560;51.364;12.384;2022-07-12T11:16:47;1.08;;;0.80;;
14933;SDS011;7560;51.364;12.384;2022-07-12T11:21:50;1.33;;;0.80;;
14933;SDS011;7560;51.364;12.384;2022-07-12T11:26:57;3.13;;;1.00;;
14933;SDS011;7560;51.364;12.384;2022-07-12T11:32:02;2.33;;;0.80;;
14933;SDS011;7560;51.364;12.384;2022-07-12T11:37:11;3.80;;;0.70;;
14933;SDS011;7560;51.364;12.384;2022-07-12T11:42:13;2.58;;;0.80;;
14933;SDS011;7560;51.364;12.384;2022-07-12T11:47:22;2.97;;;1.02;;
14933;SDS011;7560;51.364;12.384;2022-07-12T11:52:24;1.52;;;0.80;;
14933;SDS011;7560;51.364;12.384;2022-07-12T11:57:26;2.75;;;0.90;;
14933;SDS011;7560;51.364;12.384;2022-07-12T12:02:28;1.02;;;0.70;;
14933;SDS011;7560;51.364;12.384;2022-07-12T12:07:30;1.17;;;0.70;;
14933;SDS011;7560;51.364;12.384;2022-07-12T12:12:37;1.27;;;0.70;;
14933;SDS011;7560;51.364;12.384;2022-07-12T12:17:53;3.25;;;0.90;;
14933;SDS011;7560;51.364;12.384;2022-07-12T12:22:58;1.00;;;0.70;;
14933;SDS011;7560;51.364;12.384;2022-07-12T12:28:01;1.25;;;0.70;;
14933;SDS011;7560;51.364;12.384;2022-07-12T12:33:32;2.78;;;0.70;;
14933;SDS011;7560;51.364;12.384;2022-07-12T12:38:41;1.65;;;0.90;;
14933;SDS011;7560;51.364;12.384;2022-07-12T12:43:44;1.38;;;1.00;;
14933;SDS011;7560;51.364;12.384;2022-07-12T12:48:53;2.53;;;0.80;;
14933;SDS011;7560;51.364;12.384;2022-07-12T12:53:55;3.17;;;0.70;;
14933;SDS011;7560;51.364;12.384;2022-07-12T12:58:58;1.75;;;0.80;;
14933;SDS011;7560;51.364;12.384;2022-07-12T13:04:00;1.02;;;0.80;;
14933;SDS011;7560;51.364;12.384;2022-07-12T13:09:02;1.60;;;0.82;;
14933;SDS011;7560;51.364;12.384;2022-07-12T13:14:04;1.30;;;0.77;;
14933;SDS011;7560;51.364;12.384;2022-07-12T13:19:06;2.80;;;0.90;;
14933;SDS011;7560;51.364;12.384;2022-07-12T13:24:11;2.13;;;0.70;;
14933;SDS011;7560;51.364;12.384;2022-07-12T13:29:13;1.00;;;0.80;;
14933;SDS011;7560;51.364;12.384;2022-07-12T13:34:15;3.40;;;0.80;;
14933;SDS011;7560;51.364;12.384;2022-07-12T13:39:16;0.80;;;0.70;;
14933;SDS011;7560;51.364;12.384;2022-07-12T13:44:37;2.10;;;1.08;;
14933;SDS011;7560;51.364;12.384;2022-07-12T13:49:39;1.95;;;0.77;;
14933;SDS011;7560;51.364;12.384;2022-07-12T13:54:41;0.80;;;0.80;;
14933;SDS011;7560;51.364;12.384;2022-07-12T13:59:46;1.75;;;0.70;;
14933;SDS011;7560;51.364;12.384;2022-07-12T14:04:48;2.60;;;0.57;;
14933;SDS011;7560;51.364;12.384;2022-07-12T14:09:50;1.15;;;0.68;;
14933;SDS011;7560;51.364;12.384;2022-07-12T14:14:52;0.70;;;0.70;;
14933;SDS011;7560;51.364;12.384;2022-07-12T14:20:13;1.05;;;0.82;;
14933;SDS011;7560;51.364;12.384;2022-07-12T14:25:32;1.92;;;0.70;;
14933;SDS011;7560;51.364;12.384;2022-07-12T14:30:35;1.02;;;0.80;;
14933;SDS011;7560;51.364;12.384;2022-07-12T14:35:36;0.80;;;0.68;;
14933;SDS011;7560;51.364;12.384;2022-07-12T14:40:38;0.70;;;0.70;;
14933;SDS011;7560;51.364;12.384;2022-07-12T14:45:40;1.40;;;0.70;;
14933;SDS011;7560;51.364;12.384;2022-07-12T14:50:44;1.33;;;0.80;;
14933;SDS011;7560;51.364;12.384;2022-07-12T14:55:53;0.40;;;0.40;;
14933;SDS011;7560;51.364;12.384;2022-07-12T15:00:55;1.48;;;0.50;;
14933;SDS011;7560;51.364;12.384;2022-07-12T15:05:57;1.33;;;0.60;;
14933;SDS011;7560;51.364;12.384;2022-07-12T15:11:00;0.85;;;0.60;;
14933;SDS011;7560;51.364;12.384;2022-07-12T15:16:02;0.60;;;0.60;;
14933;SDS011;7560;51.364;12.384;2022-07-12T15:21:05;2.67;;;0.80;;
14933;SDS011;7560;51.364;12.384;2022-07-12T15:26:06;1.92;;;0.60;;
14933;SDS011;7560;51.364;12.384;2022-07-12T15:31:08;1.85;;;0.40;;
14933;SDS011;7560;51.364;12.384;2022-07-12T15:36:10;2.40;;;0.70;;
14933;SDS011;7560;51.364;12.384;2022-07-12T15:41:13;1.77;;;0.70;;
14933;SDS011;7560;51.364;12.384;2022-07-12T15:46:15;2.13;;;0.70;;
14933;SDS011;7560;51.364;12.384;2022-07-12T15:51:17;0.77;;;0.73;;
14933;SDS011;7560;51.364;12.384;2022-07-12T15:56:19;0.70;;;0.68;;
14933;SDS011;7560;51.364;12.384;2022-07-12T16:01:21;0.90;;;0.60;;
14933;SDS011;7560;51.364;12.384;2022-07-12T16:06:23;1.30;;;0.75;;
14933;SDS011;7560;51.364;12.384;2022-07-12T16:11:24;1.38;;;0.50;;
14933;SDS011;7560;51.364;12.384;2022-07-12T16:16:26;1.10;;;1.00;;
14933;SDS011;7560;51.364;12.384;2022-07-12T16:21:28;0.70;;;0.70;;
14933;SDS011;7560;51.364;12.384;2022-07-12T16:26:30;2.22;;;0.75;;
14933;SDS011;7560;51.364;12.384;2022-07-12T16:31:32;1.63;;;0.90;;
14933;SDS011;7560;51.364;12.384;2022-07-12T16:36:54;4.53;;;2.08;;
14933;SDS011;7560;51.364;12.384;2022-07-12T16:41:56;2.22;;;0.90;;
14933;SDS011;7560;51.364;12.384;2022-07-12T16:46:58;0.98;;;0.60;;
14933;SDS011;7560;51.364;12.384;2022-07-12T16:52:00;2.72;;;1.27;;
14933;SDS011;7560;51.364;12.384;2022-07-12T16:57:01;1.00;;;0.70;;
14933;SDS011;7560;51.364;12.384;2022-07-12T17:02:03;0.93;;;0.90;;
14933;SDS011;7560;51.364;12.384;2022-07-12T17:07:05;1.52;;;0.70;;
14933;SDS011;7560;51.364;12.384;2022-07-12T17:12:07;0.60;;;0.55;;
14933;SDS011;7560;51.364;12.384;2022-07-12T17:17:12;0.80;;;0.80;;
14933;SDS011;7560;51.364;12.384;2022-07-12T17:22:14;0.70;;;0.70;;
14933;SDS011;7560;51.364;12.384;2022-07-12T17:27:16;1.52;;;0.70;;
14933;SDS011;7560;51.364;12.384;2022-07-12T17:32:18;0.70;;;0.70;;
14933;SDS011;7560;51.364;12.384;2022-07-12T17:37:19;9.82;;;4.60;;
14933;SDS011;7560;51.364;12.384;2022-07-12T17:42:21;2.50;;;1.50;;
14933;SDS011;7560;51.364;12.384;2022-07-12T17:47:23;3.38;;;2.10;;
14933;SDS011;7560;51.364;12.384;2022-07-12T17:52:24;8.77;;;4.88;;
14933;SDS011;7560;51.364;12.384;2022-07-12T17:57:26;2.08;;;1.50;;
14933;SDS011;7560;51.364;12.384;2022-07-12T18:02:28;2.08;;;0.90;;
14933;SDS011;7560;51.364;12.384;2022-07-12T18:07:30;0.60;;;0.60;;
14933;SDS011;7560;51.364;12.384;2022-07-12T18:12:31;1.80;;;1.30;;
14933;SDS011;7560;51.364;12.384;2022-07-12T18:17:52;2.45;;;0.93;;
14933;SDS011;7560;51.364;12.384;2022-07-12T18:23:03;1.10;;;1.00;;
14933;SDS011;7560;51.364;12.384;2022-07-12T18:28:05;1.45;;;1.10;;
14933;SDS011;7560;51.364;12.384;2022-07-12T18:33:08;1.00;;;0.90;;
14933;SDS011;7560;51.364;12.384;2022-07-12T18:38:10;2.72;;;0.95;;
14933;SDS011;7560;51.364;12.384;2022-07-12T18:43:12;1.00;;;0.93;;
14933;SDS011;7560;51.364;12.384;2022-07-12T18:48:14;3.22;;;1.67;;
14933;SDS011;7560;51.364;12.384;2022-07-12T18:53:15;1.40;;;1.30;;
14933;SDS011;7560;51.364;12.384;2022-07-12T18:58:17;2.10;;;1.13;;
14933;SDS011;7560;51.364;12.384;2022-07-12T19:03:19;2.35;;;1.00;;
14933;SDS011;7560;51.364;12.384;2022-07-12T19:08:23;1.25;;;1.15;;
14933;SDS011;7560;51.364;12.384;2022-07-12T19:13:25;2.38;;;1.20;;
14933;SDS011;7560;51.364;12.384;2022-07-12T19:18:28;1.25;;;1.00;;
14933;SDS011;7560;51.364;12.384;2022-07-12T19:23:30;2.33;;;1.20;;
14933;SDS011;7560;51.364;12.384;2022-07-12T19:28:32;5.72;;;1.38;;
14933;SDS011;7560;51.364;12.384;2022-07-12T19:33:33;3.13;;;1.45;;
14933;SDS011;7560;51.364;12.384;2022-07-12T19:38:35;2.20;;;1.45;;
14933;SDS011;7560;51.364;12.384;2022-07-12T19:43:37;3.53;;;1.60;;
14933;SDS011;7560;51.364;12.384;2022-07-12T19:48:39;1.80;;;1.38;;
14933;SDS011;7560;51.364;12.384;2022-07-12T19:53:41;2.75;;;1.40;;
14933;SDS011;7560;51.364;12.384;2022-07-12T19:58:42;4.97;;;2.70;;
14933;SDS011;7560;51.364;12.384;2022-07-12T20:03:44;1.70;;;1.60;;
14933;SDS011;7560;51.364;12.384;2022-07-12T20:08:46;2.72;;;1.17;;
14933;SDS011;7560;51.364;12.384;2022-07-12T20:13:48;5.18;;;1.30;;
14933;SDS011;7560;51.364;12.384;2022-07-12T20:18:50;3.67;;;1.30;;
14933;SDS011;7560;51.364;12.384;2022-07-12T20:23:51;3.75;;;1.42;;
14933;SDS011;7560;51.364;12.384;2022-07-12T20:28:53;2.47;;;1.60;;
14933;SDS011;7560;51.364;12.384;2022-07-12T20:33:56;1.30;;;1.10;;
14933;SDS011;7560;51.364;12.384;2022-07-12T20:39:16;1.38;;;1.20;;
14933;SDS011;7560;51.364;12.384;2022-07-12T20:44:21;7.22;;;1.40;;
14933;SDS011;7560;51.364;12.384;2022-07-12T20:49:24;2.13;;;1.48;;
14933;SDS011;7560;51.364;12.384;2022-07-12T20:54:26;3.13;;;1.50;;
14933;SDS011;7560;51.364;12.384;2022-07-12T20:59:32;2.33;;;1.40;;
14933;SDS011;7560;51.364;12.384;2022-07-12T21:04:34;1.50;;;1.40;;
14933;SDS011;7560;51.364;12.384;2022-07-12T21:09:36;1.80;;;1.50;;
14933;SDS011;7560;51.364;12.384;2022-07-12T21:14:38;5.47;;;1.98;;
14933;SDS011;7560;51.364;12.384;2022-07-12T21:19:40;2.53;;;1.40;;
14933;SDS011;7560;51.364;12.384;2022-07-12T21:24:42;1.52;;;1.23;;
14933;SDS011;7560;51.364;12.384;2022-07-12T21:29:43;2.45;;;1.60;;
14933;SDS011;7560;51.364;12.384;2022-07-12T21:34:45;3.58;;;1.60;;
14933;SDS011;7560;51.364;12.384;2022-07-12T21:39:48;3.97;;;2.30;;
14933;SDS011;7560;51.364;12.384;2022-07-12T21:44:49;3.38;;;2.13;;
14933;SDS011;7560;51.364;12.384;2022-07-12T21:49:51;2.10;;;1.90;;
14933;SDS011;7560;51.364;12.384;2022-07-12T21:54:53;2.97;;;2.00;;
14933;SDS011;7560;51.364;12.384;2022-07-12T21:59:55;3.70;;;2.53;;
14933;SDS011;7560;51.364;12.384;2022-07-12T22:04:56;4.15;;;2.30;;
14933;SDS011;7560;51.364;12.384;2022-07-12T22:09:58;2.83;;;2.20;;
14933;SDS011;7560;51.364;12.384;2022-07-12T22:15:00;8.52;;;2.20;;
14933;SDS011;7560;51.364;12.384;2022-07-12T22:20:02;4.13;;;2.60;;
14933;SDS011;7560;51.364;12.384;2022-07-12T22:25:07;5.07;;;2.47;;
14933;SDS011;7560;51.364;12.384;2022-07-12T22:30:09;2.65;;;1.90;;
14933;SDS011;7560;51.364;12.384;2022-07-12T22:35:11;4.07;;;2.08;;
14933;SDS011;7560;51.364;12.384;2022-07-12T22:40:13;4.43;;;2.25;;
14933;SDS011;7560;51.364;12.384;2022-07-12T22:45:15;4.15;;;2.25;;
14933;SDS011;7560;51.364;12.384;2022-07-12T22:50:17;2.60;;;1.75;;
14933;SDS011;7560;51.364;12.384;2022-07-12T22:55:39;5.90;;;2.00;;
14933;SDS011;7560;51.364;12.384;2022-07-12T23:00:41;3.95;;;2.30;;
14933;SDS011;7560;51.364;12.384;2022-07-12T23:05:42;3.65;;;2.10;;
14933;SDS011;7560;51.364;12.384;2022-07-12T23:10:44;3.22;;;2.35;;
14933;SDS011;7560;51.364;12.384;2022-07-12T23:15:46;2.20;;;1.80;;
14933;SDS011;7560;51.364;12.384;2022-07-12T23:20:48;2.65;;;1.90;;
14933;SDS011;7560;51.364;12.384;2022-07-12T23:25:49;4.82;;;2.30;;
14933;SDS011;7560;51.364;12.384;2022-07-12T23:30:51;5.07;;;2.10;;
14933;SDS011;7560;51.364;12.384;2022-07-12T23:35:53;3.28;;;2.03;;
14933;SDS011;7560;51.364;12.384;2022-07-12T23:40:55;3.10;;;2.00;;
14933;SDS011;7560;51.364;12.384;2022-07-12T23:45:56;3.55;;;2.00;;
14933;SDS011;7560;51.364;12.384;2022-07-12T23:50:58;3.67;;;1.98;;
14933;SDS011;7560;51.364;12.384;2022-07-12T23:56:00;2.20;;;1.90;;
